Time;durP1;ratioP1;P1;durP2;ratioP2;P2;SDS_P1;SDS_P2;PMS_P1;PMS_P2;Temp;Humidity;BMP_temperature;BMP_pressure;BME280_temperature;BME280_humidity;BME280_pressure;Samples;Min_cycle;Max_cycle;Signal;HPM_P1;HPM_P2
2022/07/21 00:00:06;;;;;;;0.10;0.10;;;;;;;18.71;100.00;101577.81;10390589;28;20018;-73
2022/07/21 00:05:07;;;;;;;0.10;0.10;;;;;;;18.70;100.00;101570.72;10373391;28;20040;-73
2022/07/21 00:10:09;;;;;;;0.00;0.00;;;;;;;18.67;100.00;101568.41;10373876;28;20029;-74
2022/07/21 00:15:10;;;;;;;0.10;0.10;;;;;;;18.62;100.00;101568.19;10388210;28;20060;-74
2022/07/21 00:20:11;;;;;;;0.10;0.10;;;;;;;18.57;100.00;101560.66;10384599;28;20037;-73
2022/07/21 00:25:14;;;;;;;0.10;0.10;;;;;;;18.53;100.00;101562.94;10407971;28;20435;-73
2022/07/21 00:30:15;;;;;;;0.10;0.10;;;;;;;18.46;100.00;101550.41;10384896;28;20028;-73
2022/07/21 00:35:15;;;;;;;0.10;0.10;;;;;;;18.38;100.00;101537.88;10388773;28;20373;-73
2022/07/21 00:40:15;;;;;;;0.10;0.10;;;;;;;18.43;100.00;101527.34;10372720;28;20026;-74
2022/07/21 00:45:16;;;;;;;0.07;0.07;;;;;;;18.46;100.00;101531.50;10353917;28;20107;-74
2022/07/21 00:50:19;;;;;;;0.10;0.10;;;;;;;18.45;100.00;101522.59;10379717;28;20563;-73
2022/07/21 00:55:22;;;;;;;0.10;0.10;;;;;;;18.39;100.00;101515.28;10371617;28;20018;-74
2022/07/21 01:00:27;;;;;;;0.10;0.10;;;;;;;18.31;100.00;101515.41;10371516;28;20112;-74
2022/07/21 01:05:27;;;;;;;0.10;0.10;;;;;;;18.24;100.00;101533.41;10371008;28;20025;-74
2022/07/21 01:10:29;;;;;;;0.10;0.10;;;;;;;18.17;100.00;101540.56;10384083;28;20083;-73
2022/07/21 01:15:30;;;;;;;0.10;0.10;;;;;;;18.09;100.00;101537.00;10392940;28;20260;-73
2022/07/21 01:20:34;;;;;;;0.10;0.10;;;;;;;18.05;100.00;101537.53;10372679;28;20408;-74
2022/07/21 01:25:34;;;;;;;0.17;0.17;;;;;;;17.99;100.00;101539.16;10352394;28;20116;-74
2022/07/21 01:30:35;;;;;;;0.10;0.10;;;;;;;17.98;100.00;101594.09;10370441;28;20100;-73
2022/07/21 01:35:35;;;;;;;0.10;0.10;;;;;;;17.94;100.00;101649.38;10369052;28;20018;-74
2022/07/21 01:45:54;;;;;;;0.10;0.10;;;;;;;17.84;100.00;101663.16;10370662;28;20038;-74
2022/07/21 01:50:54;;;;;;;0.10;0.10;;;;;;;17.74;100.00;101661.72;10381464;28;20022;-73
2022/07/21 01:55:54;;;;;;;0.10;0.10;;;;;;;17.68;100.00;101646.31;10369321;28;20079;-73
2022/07/21 02:00:55;;;;;;;0.10;0.10;;;;;;;17.67;100.00;101642.78;10369005;28;20041;-74
2022/07/21 02:06:03;;;;;;;0.03;0.03;;;;;;;17.68;100.00;101640.91;10371805;28;20025;-74
2022/07/21 02:11:05;;;;;;;0.00;0.00;;;;;;;17.68;100.00;101614.81;10391435;28;20356;-74
2022/07/21 02:16:06;;;;;;;0.10;0.10;;;;;;;17.67;100.00;101623.09;10403131;28;20029;-74
2022/07/21 02:21:06;;;;;;;0.10;0.10;;;;;;;17.63;100.00;101618.06;10372759;28;20033;-73
2022/07/21 02:26:07;;;;;;;0.10;0.10;;;;;;;17.62;100.00;101621.78;10394607;28;20432;-73
2022/07/21 02:31:07;;;;;;;0.10;0.10;;;;;;;17.61;100.00;101625.50;10409076;28;20040;-73
2022/07/21 02:36:08;;;;;;;0.10;0.10;;;;;;;17.61;100.00;101630.06;10408154;28;20021;-73
2022/07/21 02:41:09;;;;;;;0.10;0.10;;;;;;;17.61;100.00;101613.88;10408578;28;20111;-73
2022/07/21 02:46:09;;;;;;;0.10;0.10;;;;;;;17.58;100.00;101612.41;10402057;28;20434;-73
2022/07/21 02:51:09;;;;;;;0.10;0.10;;;;;;;17.55;100.00;101620.03;10371974;28;20025;-74
2022/07/21 02:56:10;;;;;;;0.10;0.10;;;;;;;17.53;100.00;101630.13;10367479;28;20026;-74
2022/07/21 03:01:10;;;;;;;0.10;0.10;;;;;;;17.52;100.00;101639.25;10372297;28;20025;-74
2022/07/21 03:06:11;;;;;;;0.10;0.10;;;;;;;17.49;100.00;101623.47;10367637;28;20145;-73
2022/07/21 03:11:11;;;;;;;0.03;0.03;;;;;;;17.49;100.00;101636.94;10368031;28;20034;-74
2022/07/21 03:16:11;;;;;;;0.10;0.10;;;;;;;17.50;100.00;101634.03;10369257;28;20030;-74
2022/07/21 03:21:12;;;;;;;0.10;0.10;;;;;;;17.57;100.00;101631.44;10369066;28;20025;-74
2022/07/21 03:26:14;;;;;;;0.10;0.10;;;;;;;17.62;100.00;101611.00;10348824;28;20034;-74
2022/07/21 03:31:14;;;;;;;0.10;0.10;;;;;;;17.75;100.00;101620.31;10367050;28;20051;-74
2022/07/21 03:36:14;;;;;;;0.10;0.10;;;;;;;17.93;100.00;101654.97;10348626;28;20374;-73
2022/07/21 03:41:15;;;;;;;0.10;0.10;;;;;;;18.17;100.00;101670.00;10396844;28;20029;-74
2022/07/21 03:46:15;;;;;;;0.03;0.03;;;;;;;18.40;100.00;101643.72;10400534;28;20061;-74
2022/07/21 03:51:15;;;;;;;0.10;0.10;;;;;;;18.72;100.00;101628.88;10371218;28;20025;-74
2022/07/21 03:56:16;;;;;;;0.07;0.07;;;;;;;19.18;100.00;101639.28;10368601;28;20469;-74
2022/07/21 04:01:16;;;;;;;0.10;0.10;;;;;;;19.67;100.00;101637.56;10367632;28;20474;-74
2022/07/21 04:06:16;;;;;;;0.00;0.00;;;;;;;20.08;100.00;101636.69;10369797;28;20026;-74
2022/07/21 04:11:17;;;;;;;0.10;0.10;;;;;;;20.14;100.00;101638.59;10375712;28;20370;-74
2022/07/21 04:16:17;;;;;;;0.10;0.10;;;;;;;19.98;100.00;101617.31;10378631;28;20018;-74
2022/07/21 04:21:17;;;;;;;0.03;0.03;;;;;;;19.55;100.00;101566.16;10376706;28;20083;-74
2022/07/21 04:26:18;;;;;;;0.10;0.10;;;;;;;19.22;100.00;101567.63;10375388;28;20065;-74
2022/07/21 04:31:18;;;;;;;0.10;0.10;;;;;;;19.07;100.00;101566.06;10373559;28;20026;-73
2022/07/21 04:36:18;;;;;;;0.10;0.10;;;;;;;18.98;100.00;101595.09;10373317;28;20477;-73
2022/07/21 04:41:19;;;;;;;0.10;0.10;;;;;;;18.96;100.00;101594.44;10378414;28;20053;-74
2022/07/21 04:46:19;;;;;;;0.10;0.10;;;;;;;18.92;100.00;101612.91;10377148;28;20040;-73
2022/07/21 04:51:19;;;;;;;0.07;0.07;;;;;;;18.91;100.00;101634.69;10375228;28;20022;-73
2022/07/21 04:56:20;;;;;;;0.10;0.10;;;;;;;18.95;100.00;101612.50;10378787;28;20097;-73
2022/07/21 05:01:20;;;;;;;0.10;0.10;;;;;;;18.85;100.00;101525.66;10381366;28;20040;-73
2022/07/21 05:06:20;;;;;;;0.07;0.07;;;;;;;18.78;100.00;101519.34;10372580;28;20018;-73
2022/07/21 05:11:20;;;;;;;0.00;0.00;;;;;;;18.77;100.00;101544.69;10376901;28;20498;-74
2022/07/21 05:16:22;;;;;;;0.08;0.08;;;;;;;18.83;100.00;101545.75;10374807;28;20018;-74
2022/07/21 05:21:22;;;;;;;0.00;0.00;;;;;;;18.85;100.00;101536.44;10378535;28;20033;-73
2022/07/21 05:26:22;;;;;;;0.00;0.00;;;;;;;18.84;100.00;101548.25;10381170;28;20412;-73
2022/07/21 05:31:24;;;;;;;0.00;0.00;;;;;;;18.82;100.00;101531.44;10382548;28;20049;-74
2022/07/21 05:36:24;;;;;;;0.10;0.10;;;;;;;18.82;100.00;101533.28;10373760;28;20044;-74
2022/07/21 05:41:25;;;;;;;0.00;0.00;;;;;;;18.87;100.00;101563.22;10372701;28;20105;-74
2022/07/21 05:46:25;;;;;;;0.10;0.10;;;;;;;18.87;100.00;101577.53;10371748;28;20289;-74
2022/07/21 05:51:25;;;;;;;0.00;0.00;;;;;;;18.93;100.00;101578.63;10377166;28;20022;-74
2022/07/21 05:56:26;;;;;;;0.10;0.10;;;;;;;18.98;100.00;101590.50;10372422;28;20017;-74
2022/07/21 06:01:26;;;;;;;0.10;0.10;;;;;;;19.07;100.00;101593.06;10371593;28;20018;-73
2022/07/21 06:06:26;;;;;;;0.00;0.00;;;;;;;19.17;100.00;101564.69;10374066;28;20493;-74
2022/07/21 06:11:27;;;;;;;0.10;0.10;;;;;;;19.32;100.00;101550.25;10368554;28;20018;-73
2022/07/21 06:16:27;;;;;;;0.00;0.00;;;;;;;19.39;100.00;101549.22;10377975;28;20093;-74
2022/07/21 06:21:28;;;;;;;0.07;0.07;;;;;;;19.45;100.00;101583.53;10393075;28;20029;-73
2022/07/21 06:26:29;;;;;;;0.10;0.10;;;;;;;19.47;100.00;101614.94;10391083;28;20075;-73
2022/07/21 06:31:29;;;;;;;0.10;0.10;;;;;;;19.45;100.00;101640.28;10401332;28;20465;-73
2022/07/21 06:36:29;;;;;;;0.10;0.10;;;;;;;19.45;100.00;101637.59;10370147;28;20025;-73
2022/07/21 06:41:30;;;;;;;0.10;0.10;;;;;;;19.45;100.00;101632.19;10380738;28;20024;-73
2022/07/21 06:46:30;;;;;;;0.00;0.00;;;;;;;19.48;100.00;101622.00;10370879;28;20021;-73
2022/07/21 06:51:30;;;;;;;0.10;0.10;;;;;;;19.49;100.00;101599.34;10369614;28;20106;-75
2022/07/21 06:56:31;;;;;;;0.00;0.00;;;;;;;19.51;100.00;101575.69;10376076;28;20665;-76
2022/07/21 07:01:31;;;;;;;0.10;0.10;;;;;;;19.58;100.00;101584.66;10367515;28;20477;-75
2022/07/21 07:06:32;;;;;;;0.00;0.00;;;;;;;19.64;100.00;101582.00;10367393;28;20025;-73
2022/07/21 07:11:34;;;;;;;0.00;0.00;;;;;;;19.66;100.00;101560.19;10367302;28;20104;-73
2022/07/21 07:16:34;;;;;;;0.00;0.00;;;;;;;19.66;100.00;101561.03;10372113;28;20428;-73
2022/07/21 07:21:34;;;;;;;0.10;0.10;;;;;;;19.65;100.00;101624.22;10368946;28;20087;-74
2022/07/21 07:26:35;;;;;;;0.10;0.10;;;;;;;19.61;100.00;101628.34;10349302;28;20460;-73
2022/07/21 07:31:35;;;;;;;0.10;0.10;;;;;;;19.55;100.00;101629.13;10410906;28;20026;-74
2022/07/21 07:36:36;;;;;;;0.10;0.10;;;;;;;19.53;100.00;101627.66;10415350;28;20021;-73
2022/07/21 07:41:36;;;;;;;0.10;0.10;;;;;;;19.62;100.00;101646.22;10403111;28;20018;-75
2022/07/21 07:46:36;;;;;;;0.00;0.00;;;;;;;19.81;100.00;101655.50;10406699;28;20026;-75
2022/07/21 07:51:37;;;;;;;0.10;0.10;;;;;;;20.25;100.00;101642.59;10377550;28;20049;-75
2022/07/21 07:56:37;;;;;;;0.00;0.00;;;;;;;20.51;100.00;101666.19;10374800;28;20249;-75
2022/07/21 08:01:38;;;;;;;0.00;0.00;;;;;;;20.52;100.00;101675.94;10356663;28;20049;-75
2022/07/21 08:06:38;;;;;;;0.00;0.00;;;;;;;20.47;100.00;101673.84;10373669;28;20022;-75
2022/07/21 08:11:38;;;;;;;0.10;0.10;;;;;;;20.48;100.00;101689.06;10373679;28;20264;-74
2022/07/21 08:16:39;;;;;;;0.10;0.10;;;;;;;20.45;100.00;101694.03;10374547;28;20462;-75
2022/07/21 08:21:39;;;;;;;0.00;0.00;;;;;;;20.36;100.00;101696.06;10384901;28;20108;-74
2022/07/21 08:26:40;;;;;;;0.00;0.00;;;;;;;20.48;100.00;101683.66;10394674;28;20345;-74
2022/07/21 08:31:40;;;;;;;0.00;0.00;;;;;;;20.83;100.00;101686.25;10413481;28;20028;-74
2022/07/21 08:36:40;;;;;;;0.00;0.00;;;;;;;22.06;100.00;101685.72;10395726;28;20022;-75
2022/07/21 08:41:41;;;;;;;0.00;0.00;;;;;;;22.90;100.00;101690.09;10402076;28;20026;-75
2022/07/21 08:46:42;;;;;;;0.00;0.00;;;;;;;22.85;100.00;101710.81;10378756;28;20046;-74
2022/07/21 08:51:42;;;;;;;0.00;0.00;;;;;;;22.21;100.00;101716.16;10373859;28;20017;-73
2022/07/21 08:56:43;;;;;;;0.00;0.00;;;;;;;21.79;100.00;101717.53;10371669;28;20029;-74
2022/07/21 09:01:43;;;;;;;0.00;0.00;;;;;;;21.39;100.00;101723.81;10378513;28;20021;-74
2022/07/21 09:06:58;;;;;;;0.05;0.05;;;;;;;21.15;100.00;101711.69;10395977;28;20116;-74
2022/07/21 09:12:00;;;;;;;0.05;0.05;;;;;;;21.06;100.00;101726.50;10372270;28;20076;-77
2022/07/21 09:17:03;;;;;;;0.00;0.00;;;;;;;20.95;100.00;101727.94;10354711;28;20010;-74
2022/07/21 09:22:06;;;;;;;0.00;0.00;;;;;;;20.85;100.00;101716.66;10354232;28;20056;-74
2022/07/21 09:27:06;;;;;;;;;;;;;;;20.88;100.00;101699.16;10379464;28;20052;-75
2022/07/21 09:32:18;;;;;;;0.00;0.00;;;;;;;20.97;100.00;101692.50;10371382;28;19996;-75
2022/07/21 09:37:20;;;;;;;0.10;0.10;;;;;;;21.05;100.00;101716.69;10381384;28;20059;-75
2022/07/21 09:42:30;;;;;;;0.00;0.00;;;;;;;21.21;100.00;101719.00;10392858;28;20021;-76
2022/07/21 09:47:33;;;;;;;0.08;0.08;;;;;;;21.27;100.00;101730.88;10373721;28;20116;-75
2022/07/21 09:52:39;;;;;;;0.10;0.10;;;;;;;21.23;100.00;101737.72;10385939;28;20025;-76
2022/07/21 09:57:41;;;;;;;0.00;0.00;;;;;;;21.29;100.00;101731.47;10410291;28;20052;-75
2022/07/21 10:02:43;;;;;;;0.00;0.00;;;;;;;21.55;100.00;101743.41;10351746;28;20103;-75
2022/07/21 10:07:46;;;;;;;0.00;0.00;;;;;;;22.11;100.00;101741.00;10369010;28;20025;-75
2022/07/21 10:12:47;;;;;;;0.00;0.00;;;;;;;22.56;100.00;101741.06;10369943;28;20026;-77
2022/07/21 10:17:53;;;;;;;0.00;0.00;;;;;;;22.68;100.00;101749.34;10377129;28;20041;-75
2022/07/21 10:23:15;;;;;;;0.10;0.10;;;;;;;22.70;100.00;101749.97;10369722;28;20121;-76
2022/07/21 10:28:18;;;;;;;;;;;;;;;22.56;100.00;101746.47;10368512;28;20108;-75
2022/07/21 10:33:21;;;;;;;0.10;0.10;;;;;;;22.67;100.00;101742.25;10381830;28;20376;-75
2022/07/21 10:38:32;;;;;;;0.00;0.00;;;;;;;23.88;100.00;101740.28;10381850;28;20017;-75
2022/07/21 10:43:37;;;;;;;0.10;0.10;;;;;;;24.78;100.00;101729.59;10382937;28;20032;-76
2022/07/21 10:48:37;;;;;;;0.00;0.00;;;;;;;24.68;100.00;101734.75;10356835;28;20088;-76
2022/07/21 10:53:38;;;;;;;0.00;0.00;;;;;;;24.85;100.00;101727.56;10367974;28;20088;-75
2022/07/21 10:58:42;;;;;;;0.10;0.10;;;;;;;25.60;100.00;101723.44;10374019;28;20539;-76
2022/07/21 11:03:45;;;;;;;0.00;0.00;;;;;;;26.12;100.00;101722.69;10372676;28;20466;-76
2022/07/21 11:08:47;;;;;;;0.10;0.10;;;;;;;26.16;98.11;101711.03;10403320;28;20025;-76
2022/07/21 11:14:04;;;;;;;0.00;0.00;;;;;;;26.54;100.00;101709.63;10390880;28;20048;-74
2022/07/21 11:19:05;;;;;;;0.10;0.10;;;;;;;26.92;100.00;101707.28;10374892;28;20022;-74
2022/07/21 11:24:06;;;;;;;0.00;0.00;;;;;;;27.42;99.37;101717.44;10366960;28;20092;-74
2022/07/21 11:29:07;;;;;;;0.00;0.00;;;;;;;27.84;93.52;101720.53;10367230;28;20026;-74
2022/07/21 11:34:07;;;;;;;0.10;0.10;;;;;;;28.09;93.92;101719.22;10367012;28;20033;-74
2022/07/21 11:39:14;;;;;;;0.10;0.10;;;;;;;27.88;88.57;101715.38;10369687;28;20018;-74
2022/07/21 11:44:26;;;;;;;0.10;0.10;;;;;;;27.84;93.35;101717.81;10382078;28;20030;-74
2022/07/21 11:49:26;;;;;;;0.00;0.00;;;;;;;27.41;92.09;101705.66;10375293;28;20029;-74
2022/07/21 11:54:49;;;;;;;0.10;0.10;;;;;;;27.08;88.66;101712.78;10402658;28;20412;-74
2022/07/21 11:59:52;;;;;;;0.00;0.00;;;;;;;26.98;93.87;101707.13;10389003;28;20068;-74
2022/07/21 12:05:01;;;;;;;0.10;0.10;;;;;;;26.55;92.61;101705.00;10406057;28;20021;-74
2022/07/21 12:10:10;;;;;;;0.05;0.05;;;;;;;26.13;95.55;101692.41;10390634;28;20022;-74
2022/07/21 12:15:20;;;;;;;0.10;0.10;;;;;;;25.79;97.72;101687.84;10369061;28;20022;-74
2022/07/21 12:20:41;;;;;;;0.00;0.00;;;;;;;25.28;100.00;101693.78;10379420;28;20026;-74
2022/07/21 12:25:41;;;;;;;0.10;0.10;;;;;;;24.81;100.00;101693.69;10372229;28;20156;-74
2022/07/21 12:30:45;;;;;;;0.10;0.10;;;;;;;24.30;100.00;101696.91;10381177;28;20027;-74
2022/07/21 12:36:07;;;;;;;0.10;0.10;;;;;;;23.80;100.00;101691.66;10395714;28;20105;-74
2022/07/21 12:41:11;;;;;;;0.00;0.00;;;;;;;23.61;100.00;101693.47;10377564;28;20030;-74
2022/07/21 12:46:19;;;;;;;0.10;0.10;;;;;;;23.75;100.00;101684.16;10372616;28;20420;-74
2022/07/21 12:51:21;;;;;;;0.00;0.00;;;;;;;24.19;100.00;101676.72;10357670;28;20481;-74
2022/07/21 12:56:24;;;;;;;0.10;0.10;;;;;;;25.11;100.00;101675.63;10371413;28;20478;-75
2022/07/21 13:01:27;;;;;;;0.10;0.10;;;;;;;25.25;100.00;101671.63;10371545;28;20421;-75
2022/07/21 13:06:28;;;;;;;;;;;;;;;25.15;100.00;101664.03;10371035;28;20029;-74
2022/07/21 13:11:28;;;;;;;0.08;0.08;;;;;;;25.15;100.00;101658.56;10381407;28;19916;-75
2022/07/21 13:16:29;;;;;;;0.10;0.10;;;;;;;25.67;97.75;101653.22;10403387;28;20021;-74
2022/07/21 13:21:30;;;;;;;0.00;0.00;;;;;;;26.40;94.77;101646.22;10379173;28;20017;-74
2022/07/21 13:26:30;;;;;;;0.00;0.00;;;;;;;26.45;89.34;101647.41;10370099;28;20239;-74
2022/07/21 13:31:32;;;;;;;0.00;0.00;;;;;;;26.06;95.33;101648.03;10397175;28;20024;-75
2022/07/21 13:36:34;;;;;;;0.00;0.00;;;;;;;25.58;96.65;101635.56;10372293;28;20491;-75
2022/07/21 13:41:34;;;;;;;0.10;0.10;;;;;;;25.06;97.05;101629.97;10376455;28;20088;-75
2022/07/21 13:46:35;;;;;;;0.00;0.00;;;;;;;24.75;100.00;101634.66;10370470;28;20606;-75
2022/07/21 13:51:35;;;;;;;0.10;0.10;;;;;;;24.46;100.00;101624.66;10376540;28;20034;-74
2022/07/21 13:56:35;;;;;;;0.00;0.00;;;;;;;24.29;100.00;101621.72;10378068;28;20416;-74
2022/07/21 14:01:36;;;;;;;0.00;0.00;;;;;;;24.00;100.00;101620.66;10381347;28;20038;-74
2022/07/21 14:06:36;;;;;;;0.00;0.00;;;;;;;23.83;100.00;101615.03;10368004;28;20021;-74
2022/07/21 14:11:36;;;;;;;0.00;0.00;;;;;;;23.77;100.00;101622.22;10368936;28;20105;-74
2022/07/21 14:16:37;;;;;;;0.00;0.00;;;;;;;23.82;100.00;101613.34;10378538;28;20018;-75
2022/07/21 14:21:37;;;;;;;0.00;0.00;;;;;;;24.03;100.00;101609.31;10372388;28;20029;-74
2022/07/21 14:26:38;;;;;;;0.00;0.00;;;;;;;24.17;100.00;101605.34;10367779;28;20503;-74
2022/07/21 14:31:38;;;;;;;0.00;0.00;;;;;;;24.47;100.00;101597.19;10350472;28;20401;-75
2022/07/21 14:36:38;;;;;;;0.00;0.00;;;;;;;24.58;100.00;101590.09;10367630;28;20025;-74
2022/07/21 14:41:39;;;;;;;0.10;0.10;;;;;;;24.58;100.00;101584.66;10381194;28;20033;-74
2022/07/21 14:46:39;;;;;;;0.00;0.00;;;;;;;24.37;100.00;101586.81;10370578;28;20040;-74
2022/07/21 14:51:39;;;;;;;0.00;0.00;;;;;;;24.03;100.00;101582.94;10377656;28;20382;-74
2022/07/21 14:56:40;;;;;;;0.00;0.00;;;;;;;23.74;100.00;101581.88;10366751;28;20072;-75
2022/07/21 15:01:40;;;;;;;0.00;0.00;;;;;;;23.43;100.00;101575.50;10366994;28;20071;-76
2022/07/21 15:06:40;;;;;;;0.00;0.00;;;;;;;22.96;100.00;101567.00;10366792;28;20022;-75
2022/07/21 15:11:41;;;;;;;0.00;0.00;;;;;;;22.71;100.00;101588.69;10368945;28;20021;-75
2022/07/21 15:16:42;;;;;;;0.00;0.00;;;;;;;22.52;100.00;101619.56;10377749;28;20468;-75
2022/07/21 15:21:43;;;;;;;0.00;0.00;;;;;;;21.86;100.00;101626.13;10394989;28;20113;-77
2022/07/21 15:26:45;;;;;;;0.00;0.00;;;;;;;21.08;100.00;101637.72;10391221;28;20109;-77
2022/07/21 15:31:45;;;;;;;0.00;0.00;;;;;;;20.60;100.00;101632.50;10391754;28;20116;-76
2022/07/21 15:36:46;;;;;;;0.10;0.10;;;;;;;20.17;100.00;101635.47;10408837;28;20524;-77
2022/07/21 15:41:47;;;;;;;0.10;0.10;;;;;;;19.92;100.00;101635.16;10391285;28;20264;-77
2022/07/21 15:46:48;;;;;;;0.00;0.00;;;;;;;19.97;100.00;101623.75;10402019;28;20024;-77
2022/07/21 15:51:48;;;;;;;0.00;0.00;;;;;;;20.23;100.00;101628.41;10410729;28;20027;-78
2022/07/21 15:56:48;;;;;;;0.10;0.10;;;;;;;20.46;100.00;101647.84;10416185;28;20033;-78
2022/07/21 16:01:49;;;;;;;0.10;0.10;;;;;;;20.22;100.00;101660.06;10395015;28;20032;-78
2022/07/21 16:06:49;;;;;;;0.00;0.00;;;;;;;20.01;100.00;101666.44;10415956;28;20052;-77
2022/07/21 16:11:50;;;;;;;0.10;0.10;;;;;;;20.12;100.00;101660.41;10416248;28;20025;-78
2022/07/21 16:16:51;;;;;;;0.10;0.10;;;;;;;20.38;100.00;101642.59;10401186;28;20018;-77
2022/07/21 16:21:54;;;;;;;0.10;0.10;;;;;;;20.64;100.00;101657.28;10376474;28;20029;-77
2022/07/21 16:26:54;;;;;;;0.10;0.10;;;;;;;20.71;100.00;101661.66;10372492;28;20535;-77
2022/07/21 16:31:58;;;;;;;0.00;0.00;;;;;;;20.64;100.00;101638.31;10373027;28;20028;-77
2022/07/21 16:36:58;;;;;;;0.10;0.10;;;;;;;20.63;100.00;101642.09;10354536;28;20351;-77
2022/07/21 16:41:59;;;;;;;0.00;0.00;;;;;;;20.51;100.00;101639.94;10372545;28;20541;-77
2022/07/21 16:46:59;;;;;;;0.10;0.10;;;;;;;20.61;100.00;101626.03;10392898;28;20030;-77
2022/07/21 16:52:00;;;;;;;0.10;0.10;;;;;;;20.79;100.00;101611.88;10377263;28;20091;-77
2022/07/21 16:57:01;;;;;;;0.00;0.00;;;;;;;20.78;100.00;101613.75;10377473;28;20026;-77
2022/07/21 17:02:02;;;;;;;0.10;0.10;;;;;;;20.72;100.00;101600.22;10387251;28;20025;-77
2022/07/21 17:07:02;;;;;;;0.00;0.00;;;;;;;20.65;100.00;101602.09;10410025;28;20532;-77
2022/07/21 17:12:03;;;;;;;0.10;0.10;;;;;;;20.54;100.00;101598.97;10412164;28;20469;-76
2022/07/21 17:17:03;;;;;;;0.00;0.00;;;;;;;20.41;100.00;101596.19;10402041;28;20022;-76
2022/07/21 17:22:04;;;;;;;0.00;0.00;;;;;;;20.28;100.00;101602.44;10374698;28;20014;-76
2022/07/21 17:27:04;;;;;;;0.00;0.00;;;;;;;20.17;100.00;101605.72;10352449;28;20393;-76
2022/07/21 17:32:05;;;;;;;0.10;0.10;;;;;;;20.09;100.00;101600.50;10370676;28;20093;-76
2022/07/21 17:37:05;;;;;;;0.00;0.00;;;;;;;20.01;100.00;101611.47;10370197;28;20017;-76
2022/07/21 17:42:06;;;;;;;0.10;0.10;;;;;;;19.94;100.00;101616.88;10395037;28;20033;-76
2022/07/21 17:47:07;;;;;;;0.00;0.00;;;;;;;19.89;100.00;101630.16;10400745;28;20022;-76
2022/07/21 17:52:07;;;;;;;0.00;0.00;;;;;;;19.82;100.00;101632.84;10373351;28;20022;-76
2022/07/21 18:02:26;;;;;;;0.00;0.00;;;;;;;19.57;100.00;101612.72;10369496;28;20029;-76
2022/07/21 18:07:27;;;;;;;0.10;0.10;;;;;;;19.45;100.00;101610.56;10369241;28;20026;-75
2022/07/21 18:12:28;;;;;;;0.10;0.10;;;;;;;19.44;100.00;101608.91;10369377;28;20500;-75
2022/07/21 18:17:28;;;;;;;0.00;0.00;;;;;;;19.38;100.00;101622.38;10372449;28;20025;-75
2022/07/21 18:22:29;;;;;;;0.10;0.10;;;;;;;19.31;100.00;101611.50;10385803;28;20028;-75
2022/07/21 18:27:29;;;;;;;0.10;0.10;;;;;;;19.27;100.00;101620.22;10408511;28;20507;-75
2022/07/21 18:32:30;;;;;;;0.10;0.10;;;;;;;19.20;100.00;101609.38;10391829;28;20025;-75
2022/07/21 18:37:30;;;;;;;0.10;0.10;;;;;;;19.16;100.00;101621.59;10408837;28;20396;-75
2022/07/21 18:42:30;;;;;;;0.10;0.10;;;;;;;19.15;100.00;101614.53;10408710;28;20268;-74
2022/07/21 18:47:31;;;;;;;0.10;0.10;;;;;;;19.17;100.00;101616.00;10379845;28;20031;-75
2022/07/21 18:52:33;;;;;;;0.10;0.10;;;;;;;19.14;100.00;101610.16;10369919;28;20111;-75
2022/07/21 18:57:34;;;;;;;0.00;0.00;;;;;;;19.07;100.00;101615.50;10349864;28;20018;-75
2022/07/21 19:02:35;;;;;;;0.10;0.10;;;;;;;19.03;100.00;101626.91;10368023;28;20026;-75
2022/07/21 19:07:36;;;;;;;0.10;0.10;;;;;;;18.96;100.00;101629.53;10367170;28;20029;-75
2022/07/21 19:12:36;;;;;;;0.10;0.10;;;;;;;18.88;100.00;101638.63;10367490;28;20018;-75
2022/07/21 19:17:36;;;;;;;0.00;0.00;;;;;;;18.85;100.00;101647.09;10373958;28;20272;-74
2022/07/21 19:22:37;;;;;;;0.10;0.10;;;;;;;18.83;100.00;101654.56;10369434;28;20026;-74
2022/07/21 19:27:38;;;;;;;0.10;0.10;;;;;;;18.79;100.00;101658.66;10386224;28;20025;-75
2022/07/21 19:32:38;;;;;;;0.03;0.03;;;;;;;18.71;100.00;101662.31;10416109;28;20025;-75
2022/07/21 19:37:39;;;;;;;0.10;0.10;;;;;;;18.72;100.00;101663.13;10415887;28;20013;-74
2022/07/21 19:42:39;;;;;;;0.00;0.00;;;;;;;18.75;100.00;101670.88;10386374;28;20022;-75
2022/07/21 19:47:40;;;;;;;0.10;0.10;;;;;;;18.78;100.00;101674.00;10363391;28;20024;-75
2022/07/21 19:52:40;;;;;;;0.00;0.00;;;;;;;18.81;100.00;101680.06;10376541;28;20025;-75
2022/07/21 19:57:41;;;;;;;0.00;0.00;;;;;;;18.82;100.00;101676.31;10373995;28;20020;-75
2022/07/21 20:02:42;;;;;;;0.10;0.10;;;;;;;18.78;100.00;101675.88;10385746;28;20029;-74
2022/07/21 20:07:42;;;;;;;0.10;0.10;;;;;;;18.80;100.00;101679.22;10412628;28;20507;-75
2022/07/21 20:12:43;;;;;;;0.10;0.10;;;;;;;18.78;100.00;101678.59;10415536;28;20370;-75
2022/07/21 20:17:43;;;;;;;0.00;0.00;;;;;;;18.76;100.00;101672.53;10409071;28;20041;-75
2022/07/21 20:22:43;;;;;;;0.00;0.00;;;;;;;18.76;100.00;101668.00;10415477;28;20439;-75
2022/07/21 20:27:44;;;;;;;0.10;0.10;;;;;;;18.77;100.00;101660.72;10412365;28;20025;-75
2022/07/21 20:32:47;;;;;;;0.10;0.10;;;;;;;18.76;100.00;101665.28;10358304;28;20257;-76
2022/07/21 20:37:48;;;;;;;0.00;0.00;;;;;;;18.71;100.00;101661.47;10407428;28;20025;-75
2022/07/21 20:42:50;;;;;;;0.08;0.08;;;;;;;18.71;100.00;101659.59;10415695;28;20060;-76
2022/07/21 20:47:51;;;;;;;0.00;0.00;;;;;;;18.69;100.00;101650.03;10396259;28;20493;-76
2022/07/21 20:52:51;;;;;;;0.10;0.10;;;;;;;18.65;100.00;101643.34;10374450;28;20032;-76
2022/07/21 20:57:52;;;;;;;0.10;0.10;;;;;;;18.63;100.00;101646.22;10412239;28;20060;-76
2022/07/21 21:02:52;;;;;;;0.10;0.10;;;;;;;18.62;100.00;101655.38;10371867;28;20389;-75
2022/07/21 21:07:53;;;;;;;0.10;0.10;;;;;;;18.60;100.00;101645.78;10369797;28;20076;-76
2022/07/21 21:12:53;;;;;;;0.10;0.10;;;;;;;18.55;100.00;101641.78;10371530;28;20026;-76
2022/07/21 21:17:53;;;;;;;0.10;0.10;;;;;;;18.55;100.00;101636.38;10374931;28;20022;-75
2022/07/21 21:22:54;;;;;;;0.00;0.00;;;;;;;18.52;100.00;101639.47;10371356;28;20022;-76
2022/07/21 21:27:54;;;;;;;0.10;0.10;;;;;;;18.50;100.00;101636.16;10352848;28;20470;-76
2022/07/21 21:32:54;;;;;;;0.10;0.10;;;;;;;18.48;100.00;101646.28;10370643;28;20280;-75
2022/07/21 21:37:55;;;;;;;0.10;0.10;;;;;;;18.48;100.00;101642.75;10370057;28;20501;-75
2022/07/21 21:42:55;;;;;;;0.10;0.10;;;;;;;18.45;100.00;101645.84;10371341;28;20034;-76
2022/07/21 21:47:55;;;;;;;0.10;0.10;;;;;;;18.42;100.00;101651.63;10374529;28;20352;-75
2022/07/21 21:52:56;;;;;;;0.10;0.10;;;;;;;18.42;100.00;101652.44;10352997;28;20132;-75
2022/07/21 21:57:56;;;;;;;0.10;0.10;;;;;;;18.43;100.00;101637.94;10351525;28;20306;-75
2022/07/21 22:02:56;;;;;;;0.10;0.10;;;;;;;18.43;100.00;101629.84;10369659;28;20258;-75
2022/07/21 22:07:56;;;;;;;0.10;0.10;;;;;;;18.44;100.00;101641.47;10368812;28;20120;-75
2022/07/21 22:12:57;;;;;;;0.10;0.10;;;;;;;18.41;100.00;101639.97;10368961;28;20017;-75
2022/07/21 22:17:57;;;;;;;0.10;0.10;;;;;;;18.38;100.00;101648.44;10379321;28;20036;-75
2022/07/21 22:22:57;;;;;;;0.10;0.10;;;;;;;18.37;100.00;101646.78;10354231;28;20099;-75
2022/07/21 22:27:58;;;;;;;0.10;0.10;;;;;;;18.38;100.00;101655.72;10373634;28;20029;-75
2022/07/21 22:32:58;;;;;;;0.10;0.10;;;;;;;18.40;100.00;101661.75;10394160;28;20477;-75
2022/07/21 22:37:58;;;;;;;0.10;0.10;;;;;;;18.43;100.00;101664.91;10376462;28;20029;-75
2022/07/21 22:42:59;;;;;;;0.00;0.00;;;;;;;18.45;100.00;101665.56;10394248;28;20026;-75
2022/07/21 22:48:04;;;;;;;0.00;0.00;;;;;;;18.45;100.00;101673.66;10382938;28;20484;-75
2022/07/21 22:53:05;;;;;;;0.03;0.03;;;;;;;18.44;100.00;101668.44;10392982;28;20057;-73
2022/07/21 22:58:05;;;;;;;0.10;0.10;;;;;;;18.42;100.00;101678.59;10392777;28;20041;-76